createdAt,value
2023-02-19T00:03:52.876Z,59.53
2023-02-19T00:06:20.535Z,49.67
2023-02-19T00:08:47.813Z,45.20
2023-02-19T00:11:20.063Z,46.80
2023-02-19T00:13:49.025Z,54.47
2023-02-19T00:16:18.436Z,59.42
2023-02-19T00:18:46.042Z,58.83
2023-02-19T00:21:13.805Z,66.45
2023-02-19T00:23:40.492Z,73.03
2023-02-19T00:26:18.508Z,78.38
2023-02-19T00:28:48.360Z,85.93
2023-02-19T00:31:17.240Z,79.65
2023-02-19T00:33:44.584Z,67.93
2023-02-19T00:36:11.920Z,66.55
2023-02-19T00:38:40.340Z,79.65
2023-02-19T00:41:20.460Z,75.43
2023-02-19T00:44:01.678Z,69.53
2023-02-19T00:46:38.844Z,77.13
2023-02-19T00:49:07.630Z,58.75
2023-02-19T00:51:37.200Z,75.95
2023-02-19T00:54:06.924Z,65.20
2023-02-19T00:56:33.717Z,62.78
2023-02-19T00:59:00.738Z,46.60
2023-02-19T01:01:27.652Z,57.47
2023-02-19T01:03:54.289Z,42.58
2023-02-19T01:06:23.658Z,45.42
2023-02-19T01:08:50.792Z,50.33
2023-02-19T01:11:25.097Z,54.50
2023-02-19T01:13:51.799Z,41.33
2023-02-19T01:16:24.625Z,47.55
2023-02-19T01:18:51.447Z,42.75
2023-02-19T01:21:23.799Z,46.67
2023-02-19T01:23:52.137Z,54.95
2023-02-19T01:26:25.122Z,54.55
2023-02-19T01:28:52.372Z,50.13
2023-02-19T01:31:23.160Z,37.65
2023-02-19T01:33:55.335Z,57.15
2023-02-19T01:36:22.924Z,52.55
2023-02-19T01:38:49.763Z,55.85
2023-02-19T01:41:19.821Z,44.35
2023-02-19T01:44:12.100Z,57.03
2023-02-19T01:46:40.785Z,47.83
2023-02-19T01:49:22.869Z,53.60
2023-02-19T01:52:04.359Z,71.13
2023-02-19T01:54:34.595Z,74.32
2023-02-19T01:57:06.760Z,83.32
2023-02-19T01:59:34.084Z,74.30
2023-02-19T02:02:01.278Z,91.47
2023-02-19T02:04:32.432Z,79.07
2023-02-19T02:07:01.669Z,77.57
2023-02-19T02:09:48.961Z,93.88
2023-02-19T02:12:15.958Z,119.28
2023-02-19T02:14:45.871Z,89.75
2023-02-19T02:17:29.157Z,92.90
2023-02-19T02:20:20.514Z,95.18
2023-02-19T02:22:57.205Z,88.72
2023-02-19T02:25:27.544Z,98.22
2023-02-19T02:28:07.139Z,91.93
2023-02-19T02:30:54.190Z,98.22
2023-02-19T02:33:25.634Z,116.05
2023-02-19T02:36:03.258Z,120.95
2023-02-19T02:38:33.049Z,118.20
2023-02-19T02:41:00.164Z,101.10
2023-02-19T02:43:27.004Z,85.38
2023-02-19T02:45:54.186Z,76.18
2023-02-19T02:48:28.614Z,79.03
2023-02-19T02:51:10.325Z,80.82
2023-02-19T02:54:19.996Z,91.38
2023-02-19T02:56:48.662Z,92.15
2023-02-19T02:59:18.845Z,102.88
2023-02-19T03:02:16.842Z,95.05
2023-02-19T03:05:22.885Z,89.00
2023-02-19T03:07:55.952Z,102.20
2023-02-19T03:10:34.405Z,98.95
2023-02-19T03:13:26.279Z,92.85
2023-02-19T03:16:18.281Z,81.13
2023-02-19T03:19:07.946Z,84.43
2023-02-19T03:21:38.145Z,81.07
2023-02-19T03:24:29.312Z,83.10
2023-02-19T03:26:59.305Z,80.32
2023-02-19T03:29:31.933Z,94.65
2023-02-19T03:32:06.982Z,118.32
2023-02-19T03:34:41.228Z,98.43
2023-02-19T03:37:27.320Z,95.65
2023-02-19T03:39:57.188Z,89.10
2023-02-19T03:42:44.728Z,97.75
2023-02-19T03:45:32.647Z,87.82
2023-02-19T03:48:25.220Z,90.55
2023-02-19T03:51:00.063Z,91.25
2023-02-19T03:56:23.422Z,91.32
2023-02-19T03:59:13.569Z,86.40
2023-02-19T04:01:43.252Z,82.72
2023-02-19T04:04:34.925Z,74.85
2023-02-19T04:07:01.845Z,86.25
2023-02-19T04:09:39.149Z,74.95
2023-02-19T04:12:10.949Z,75.78
2023-02-19T04:14:47.191Z,62.10
2023-02-19T04:17:35.893Z,44.65
2023-02-19T04:20:06.925Z,47.28
2023-02-19T04:22:36.106Z,34.90
2023-02-19T04:25:03.537Z,40.47
2023-02-19T04:27:30.276Z,43.58
2023-02-19T04:29:58.567Z,35.35
2023-02-19T04:32:28.027Z,39.33
2023-02-19T04:34:54.673Z,32.30
2023-02-19T04:37:21.309Z,37.95
2023-02-19T04:39:47.952Z,24.40
2023-02-19T04:42:14.840Z,30.15
2023-02-19T04:44:41.481Z,37.42
2023-02-19T04:47:08.173Z,32.65
2023-02-19T04:49:34.821Z,31.23
2023-02-19T04:52:01.508Z,43.00
2023-02-19T04:54:28.450Z,44.40
2023-02-19T04:56:55.144Z,38.17
2023-02-19T04:59:21.768Z,44.47
2023-02-19T05:01:48.887Z,44.20
2023-02-19T05:04:15.519Z,42.72
2023-02-19T05:06:42.130Z,45.58
2023-02-19T05:09:08.958Z,44.20
2023-02-19T05:11:36.123Z,46.03
2023-02-19T05:14:02.830Z,45.63
2023-02-19T05:16:29.607Z,39.38
2023-02-19T05:18:58.977Z,36.15
2023-02-19T05:21:26.023Z,40.03
2023-02-19T05:23:52.776Z,49.50
2023-02-19T05:26:22.548Z,51.45
2023-02-19T05:28:52.230Z,52.28
2023-02-19T05:31:19.828Z,48.53
2023-02-19T05:33:50.772Z,58.25
2023-02-19T05:36:18.305Z,46.13
2023-02-19T05:38:45.073Z,51.55
2023-02-19T05:41:13.680Z,55.10
2023-02-19T05:43:41.233Z,45.45
2023-02-19T05:46:08.808Z,49.70
2023-02-19T05:48:35.974Z,47.47
2023-02-19T05:51:08.312Z,39.08
2023-02-19T05:53:35.553Z,52.20
2023-02-19T05:56:02.296Z,41.55
2023-02-19T05:58:29.808Z,61.03
2023-02-19T06:00:56.929Z,44.30
2023-02-19T06:03:23.606Z,47.40
2023-02-19T06:05:50.208Z,40.47
2023-02-19T06:08:16.884Z,50.08
2023-02-19T06:10:43.634Z,50.60
2023-02-19T06:13:10.780Z,48.22
2023-02-19T06:15:38.139Z,52.53
2023-02-19T06:18:05.206Z,49.35
2023-02-19T06:20:34.881Z,41.28
2023-02-19T06:23:01.559Z,36.00
2023-02-19T06:25:28.150Z,42.40
2023-02-19T06:27:54.808Z,48.45
2023-02-19T06:30:21.573Z,43.85
2023-02-19T06:32:50.944Z,38.63
2023-02-19T06:35:17.624Z,34.72
2023-02-19T06:37:46.949Z,35.22
2023-02-19T06:40:13.625Z,43.58
2023-02-19T06:42:40.256Z,36.05
2023-02-19T06:45:07.192Z,40.08
2023-02-19T06:47:34.224Z,41.53
2023-02-19T06:50:00.980Z,41.38
2023-02-19T06:52:28.145Z,37.85
2023-02-19T06:54:54.756Z,30.27
2023-02-19T06:57:21.429Z,32.75
2023-02-19T06:59:48.057Z,26.88
2023-02-19T07:02:14.704Z,30.08
2023-02-19T07:04:41.356Z,27.65
2023-02-19T07:07:11.832Z,29.23
2023-02-19T07:09:38.471Z,30.30
2023-02-19T07:12:05.554Z,31.60
2023-02-19T07:14:32.324Z,28.77
2023-02-19T07:16:58.977Z,33.97
2023-02-19T07:19:25.577Z,33.03
2023-02-19T07:21:52.197Z,34.58
2023-02-19T07:24:21.358Z,29.95
2023-02-19T07:26:48.052Z,31.52
2023-02-19T07:29:14.692Z,35.55
2023-02-19T07:31:42.860Z,31.90
2023-02-19T07:34:09.448Z,34.25
2023-02-19T07:36:37.471Z,31.42
2023-02-19T07:39:04.684Z,35.22
2023-02-19T07:41:31.890Z,31.95
2023-02-19T07:43:59.149Z,28.42
2023-02-19T07:46:25.946Z,28.25
2023-02-19T07:48:52.596Z,28.55
2023-02-19T07:51:20.659Z,35.13
2023-02-19T07:53:50.142Z,31.40
2023-02-19T07:56:17.655Z,30.90
2023-02-19T07:58:46.132Z,18.30
2023-02-19T08:01:44.098Z,12.40
2023-02-19T08:04:12.893Z,9.70
2023-02-19T08:06:39.617Z,4.90
2023-02-19T08:09:06.333Z,7.35
2023-02-19T08:11:55.219Z,6.40
2023-02-19T08:14:26.833Z,1.63
2023-02-19T08:16:54.234Z,2.75
2023-02-19T08:19:21.433Z,1.15
2023-02-19T08:21:48.069Z,1.35
2023-02-19T08:24:17.716Z,1.00
2023-02-19T08:26:44.331Z,1.45
2023-02-19T08:29:10.950Z,1.27
2023-02-19T08:31:37.777Z,1.42
2023-02-19T08:34:04.609Z,1.92
2023-02-19T08:36:31.209Z,1.58
2023-02-19T08:39:00.867Z,0.65
2023-02-19T08:41:28.033Z,1.90
2023-02-19T08:43:54.697Z,1.95
2023-02-19T08:46:22.548Z,1.92
2023-02-19T08:48:49.376Z,2.22
2023-02-19T08:51:16.001Z,3.42
2023-02-19T08:53:42.623Z,4.75
2023-02-19T08:56:12.375Z,2.75
2023-02-19T08:58:39.365Z,2.78
2023-02-19T09:01:11.788Z,4.18
2023-02-19T09:03:39.127Z,3.15
2023-02-19T09:06:06.077Z,2.65
2023-02-19T09:08:32.928Z,3.75
2023-02-19T09:11:04.837Z,2.55
2023-02-19T09:13:31.741Z,1.45
2023-02-19T09:15:58.521Z,1.67
2023-02-19T09:18:26.153Z,2.00
2023-02-19T09:20:52.795Z,2.22
2023-02-19T09:23:19.708Z,1.58
2023-02-19T09:25:46.471Z,1.98
2023-02-19T09:28:13.387Z,2.03
2023-02-19T09:30:40.085Z,1.30
2023-02-19T09:33:07.698Z,1.20
2023-02-19T09:35:34.381Z,0.70
2023-02-19T09:38:02.076Z,1.40
2023-02-19T09:40:30.240Z,0.93
2023-02-19T09:42:57.235Z,1.25
2023-02-19T09:45:25.900Z,1.05
2023-02-19T09:47:57.866Z,2.65
2023-02-19T09:50:48.514Z,1.00
2023-02-19T09:53:21.404Z,1.05
2023-02-19T09:55:48.396Z,1.42
2023-02-19T09:58:45.264Z,1.02
2023-02-19T10:01:12.772Z,1.40
2023-02-19T10:03:46.821Z,1.45
2023-02-19T10:06:26.490Z,1.85
2023-02-19T10:08:59.983Z,1.50
2023-02-19T10:11:27.209Z,3.17
2023-02-19T10:14:04.276Z,1.75
2023-02-19T10:16:31.345Z,3.78
2023-02-19T10:18:58.068Z,6.85
2023-02-19T10:21:27.277Z,4.72
2023-02-19T10:23:57.581Z,9.13
2023-02-19T10:26:24.354Z,4.45
2023-02-19T10:28:51.130Z,2.50
2023-02-19T10:31:21.267Z,3.13
2023-02-19T10:33:56.695Z,2.78
2023-02-19T10:36:33.362Z,2.63
2023-02-19T10:39:21.696Z,2.35
2023-02-19T10:41:54.316Z,1.88
2023-02-19T10:44:30.650Z,1.65
2023-02-19T10:46:59.638Z,1.48
2023-02-19T10:49:39.283Z,1.50
2023-02-19T10:52:18.336Z,2.47
2023-02-19T10:54:49.195Z,3.78
2023-02-19T10:57:25.644Z,3.10
2023-02-19T11:00:27.208Z,3.22
2023-02-19T11:03:20.916Z,3.30
2023-02-19T11:06:02.921Z,4.28
2023-02-19T11:08:30.811Z,4.72
2023-02-19T11:10:57.567Z,4.65
2023-02-19T11:13:30.800Z,5.68
2023-02-19T11:15:58.309Z,6.35
2023-02-19T11:18:30.528Z,5.90
2023-02-19T11:21:06.188Z,5.18
2023-02-19T11:23:35.611Z,6.13
2023-02-19T11:26:06.673Z,5.43
2023-02-19T11:28:36.857Z,5.32
2023-02-19T11:31:14.798Z,5.80
2023-02-19T11:34:01.631Z,5.75
2023-02-19T11:36:36.510Z,7.00
2023-02-19T11:42:14.450Z,6.85
2023-02-19T11:45:05.695Z,8.40
2023-02-19T11:47:42.724Z,8.05
2023-02-19T11:50:24.287Z,6.72
2023-02-19T11:53:15.022Z,6.65
2023-02-19T11:56:00.649Z,6.00
2023-02-19T11:58:39.170Z,7.38
2023-02-19T12:02:03.243Z,9.70
2023-02-19T12:05:17.106Z,8.15
2023-02-19T12:08:26.689Z,8.05
2023-02-19T12:11:14.645Z,9.77
2023-02-19T12:14:19.205Z,9.40
2023-02-19T12:16:58.848Z,10.65
2023-02-19T12:19:31.298Z,8.38
2023-02-19T12:22:06.163Z,9.70
2023-02-19T12:27:19.848Z,10.63
2023-02-19T12:30:17.152Z,11.23
2023-02-19T12:33:21.846Z,12.43
2023-02-19T12:36:13.901Z,14.27
2023-02-19T12:38:47.778Z,12.38
2023-02-19T12:41:27.646Z,14.50
2023-02-19T12:44:03.237Z,13.45
2023-02-19T12:46:33.026Z,13.82
2023-02-19T12:49:31.609Z,14.38
2023-02-19T12:52:23.705Z,18.20
2023-02-19T12:54:56.163Z,17.50
2023-02-19T12:57:34.509Z,16.80
2023-02-19T13:00:39.385Z,16.48
2023-02-19T13:03:08.948Z,17.67
2023-02-19T13:05:56.078Z,17.08
2023-02-19T13:08:34.078Z,17.75
2023-02-19T13:11:05.189Z,20.02
2023-02-19T13:14:03.259Z,17.15
2023-02-19T13:16:33.303Z,15.80
2023-02-19T13:19:02.240Z,19.98
2023-02-19T13:21:54.573Z,18.48
2023-02-19T13:24:30.443Z,21.98
2023-02-19T13:27:00.154Z,21.05
2023-02-19T13:29:32.916Z,23.70
2023-02-19T13:32:35.040Z,25.13
2023-02-19T13:35:21.850Z,18.60
2023-02-19T13:37:49.884Z,27.58
2023-02-19T13:40:22.616Z,20.65
2023-02-19T13:42:58.449Z,19.20
2023-02-19T13:45:39.296Z,21.17
2023-02-19T13:48:32.912Z,18.83
2023-02-19T13:51:23.762Z,19.67
2023-02-19T13:53:58.992Z,20.98
2023-02-19T13:56:33.782Z,22.17
2023-02-19T13:59:12.524Z,19.33
2023-02-19T14:01:51.607Z,19.23
2023-02-19T14:04:43.387Z,21.55
2023-02-19T14:07:10.001Z,19.40
2023-02-19T14:09:36.826Z,18.50
2023-02-19T14:12:04.404Z,21.00
2023-02-19T14:14:39.384Z,24.77
2023-02-19T14:19:41.328Z,20.45
2023-02-19T14:22:57.746Z,20.08
2023-02-19T14:25:27.176Z,19.63
2023-02-19T14:28:15.496Z,19.15
2023-02-19T14:31:17.617Z,20.17
2023-02-19T14:33:53.423Z,20.98
2023-02-19T14:36:48.702Z,20.95
2023-02-19T14:39:48.409Z,20.95
2023-02-19T14:42:23.573Z,20.30
2023-02-19T14:44:58.684Z,19.58
2023-02-19T14:47:28.316Z,20.02
2023-02-19T14:50:01.888Z,19.70
2023-02-19T14:52:44.251Z,19.15
2023-02-19T14:55:19.899Z,18.30
2023-02-19T14:57:49.533Z,18.10
2023-02-19T15:00:24.153Z,19.35
2023-02-19T15:02:52.732Z,17.60
2023-02-19T15:05:25.012Z,18.33
2023-02-19T15:07:54.056Z,17.73
2023-02-19T15:10:21.280Z,18.15
2023-02-19T15:12:52.657Z,16.92
2023-02-19T15:15:24.769Z,16.63
2023-02-19T15:17:53.476Z,17.88
2023-02-19T15:20:25.512Z,17.27
2023-02-19T15:22:53.536Z,19.13
2023-02-19T15:25:22.757Z,18.95
2023-02-19T15:27:50.186Z,21.02
2023-02-19T15:30:23.451Z,19.15
2023-02-19T15:32:58.691Z,23.98
2023-02-19T15:35:30.197Z,24.15
2023-02-19T15:37:57.270Z,24.92
2023-02-19T15:40:31.184Z,19.30
2023-02-19T15:43:00.148Z,18.92
2023-02-19T15:45:41.317Z,20.42
2023-02-19T15:48:25.291Z,20.60
2023-02-19T15:50:59.418Z,22.55
2023-02-19T15:53:31.665Z,19.02
2023-02-19T15:56:14.443Z,18.88
2023-02-19T15:58:56.470Z,17.92
2023-02-19T16:01:41.765Z,17.00
2023-02-19T16:04:15.043Z,15.70
2023-02-19T16:06:54.286Z,14.27
2023-02-19T16:09:27.804Z,14.93
2023-02-19T16:11:57.597Z,13.50
2023-02-19T16:14:28.685Z,10.30
2023-02-19T16:16:58.870Z,11.02
2023-02-19T16:19:28.642Z,12.00
2023-02-19T16:21:56.209Z,14.10
2023-02-19T16:24:34.708Z,14.70
2023-02-19T16:27:02.488Z,14.25
2023-02-19T16:29:32.173Z,12.57
2023-02-19T16:32:04.662Z,11.32
2023-02-19T16:34:42.905Z,11.45
2023-02-19T16:37:55.904Z,10.98
2023-02-19T16:40:57.330Z,13.20
2023-02-19T16:43:42.513Z,13.25
2023-02-19T16:46:11.806Z,12.82
2023-02-19T16:48:39.158Z,13.93
2023-02-19T16:51:07.340Z,12.23
2023-02-19T16:53:34.225Z,12.73
2023-02-19T16:56:00.960Z,12.70
2023-02-19T16:58:27.613Z,11.55
2023-02-19T17:00:54.313Z,12.00
2023-02-19T17:03:23.560Z,10.57
2023-02-19T17:05:50.745Z,11.57
2023-02-19T17:08:36.828Z,14.15
2023-02-19T17:11:06.474Z,14.05
2023-02-19T17:13:33.261Z,14.75
2023-02-19T17:16:00.538Z,19.63
2023-02-19T17:18:27.422Z,20.23
2023-02-19T17:21:25.839Z,21.10
2023-02-19T17:23:53.895Z,27.10
2023-02-19T17:26:26.390Z,29.67
2023-02-19T17:28:53.004Z,26.95
2023-02-19T17:31:19.872Z,28.42
2023-02-19T17:33:46.918Z,31.17
2023-02-19T17:36:22.101Z,29.25
2023-02-19T17:38:48.884Z,28.17
2023-02-19T17:41:15.629Z,31.55
2023-02-19T17:43:42.262Z,27.15
2023-02-19T17:46:17.829Z,33.13
2023-02-19T17:48:44.583Z,36.08
2023-02-19T17:51:12.051Z,35.42
2023-02-19T17:53:39.004Z,38.10
2023-02-19T17:56:05.763Z,41.97
2023-02-19T17:58:32.599Z,38.38
2023-02-19T18:00:59.255Z,34.70
2023-02-19T18:03:25.980Z,41.33
2023-02-19T18:05:52.782Z,48.38
2023-02-19T18:08:19.400Z,40.20
2023-02-19T18:10:46.072Z,47.28
2023-02-19T18:13:12.902Z,45.45
2023-02-19T18:15:39.484Z,47.58
2023-02-19T18:18:06.169Z,51.10
2023-02-19T18:20:32.826Z,57.50
2023-02-19T18:22:59.560Z,50.20
2023-02-19T18:25:26.501Z,52.45
2023-02-19T18:27:53.203Z,63.83
2023-02-19T18:30:22.659Z,66.88
2023-02-19T18:32:50.181Z,58.72
2023-02-19T18:35:18.232Z,66.30
2023-02-19T18:37:45.121Z,56.72
2023-02-19T18:40:12.511Z,61.50
2023-02-19T18:42:39.999Z,63.50
2023-02-19T18:45:07.571Z,62.72
2023-02-19T18:47:34.382Z,51.78
2023-02-19T18:50:01.194Z,54.00
2023-02-19T18:52:28.015Z,64.50
2023-02-19T18:54:57.112Z,68.63
2023-02-19T18:57:25.337Z,58.03
2023-02-19T18:59:52.151Z,49.70
2023-02-19T19:02:19.551Z,46.25
2023-02-19T19:04:50.831Z,38.95
2023-02-19T19:07:18.579Z,40.42
2023-02-19T19:09:45.274Z,36.83
2023-02-19T19:12:12.176Z,36.15
2023-02-19T19:14:38.960Z,35.10
2023-02-19T19:17:05.737Z,41.42
2023-02-19T19:19:32.413Z,34.13
2023-02-19T19:21:59.061Z,35.97
2023-02-19T19:24:25.691Z,38.08
2023-02-19T19:26:52.973Z,33.95
2023-02-19T19:29:21.967Z,40.97
2023-02-19T19:31:49.105Z,38.55
2023-02-19T19:34:16.251Z,40.15
2023-02-19T19:36:43.118Z,44.85
2023-02-19T19:39:09.766Z,36.63
2023-02-19T19:41:36.405Z,41.42
2023-02-19T19:44:07.631Z,46.50
2023-02-19T19:46:34.766Z,40.40
2023-02-19T19:49:01.802Z,47.67
2023-02-19T19:51:32.749Z,36.47
2023-02-19T19:53:59.539Z,44.53
2023-02-19T19:56:26.232Z,42.75
2023-02-19T19:58:52.900Z,48.42
2023-02-19T20:01:21.142Z,40.58
2023-02-19T20:03:48.507Z,41.47
2023-02-19T20:06:15.184Z,48.20
2023-02-19T20:08:41.788Z,35.33
2023-02-19T20:11:08.536Z,40.97
2023-02-19T20:13:35.511Z,45.80
2023-02-19T20:16:02.242Z,38.25
2023-02-19T20:18:28.912Z,39.45
2023-02-19T20:20:55.918Z,31.73
2023-02-19T20:23:22.648Z,32.20
2023-02-19T20:25:49.274Z,29.05
2023-02-19T20:28:16.160Z,30.67
2023-02-19T20:30:43.637Z,32.25
2023-02-19T20:33:10.441Z,45.38
2023-02-19T20:35:37.156Z,36.97
2023-02-19T20:38:03.779Z,44.85
2023-02-19T20:40:31.192Z,41.70
2023-02-19T20:43:00.611Z,46.70
2023-02-19T20:45:28.286Z,57.40
2023-02-19T20:47:54.900Z,60.00
2023-02-19T20:50:23.124Z,69.20
2023-02-19T20:52:49.825Z,63.08
2023-02-19T20:55:16.689Z,56.85
2023-02-19T20:57:43.332Z,54.83
2023-02-19T21:00:11.061Z,52.95
2023-02-19T21:02:37.738Z,51.13
2023-02-19T21:05:04.713Z,62.50
2023-02-19T21:07:31.523Z,59.75
2023-02-19T21:09:58.145Z,67.25
2023-02-19T21:12:24.725Z,75.47
2023-02-19T21:14:51.350Z,56.42
2023-02-19T21:17:17.936Z,50.30
2023-02-19T21:19:45.957Z,47.53
2023-02-19T21:22:12.809Z,48.92
2023-02-19T21:24:39.484Z,46.45
2023-02-19T21:27:06.206Z,42.38
2023-02-19T21:29:32.893Z,51.47
2023-02-19T21:31:59.723Z,48.15
2023-02-19T21:34:29.773Z,49.38
2023-02-19T21:36:56.882Z,51.88
2023-02-19T21:39:25.167Z,47.58
2023-02-19T21:41:51.879Z,50.20
2023-02-19T21:44:20.853Z,41.67
2023-02-19T21:46:47.862Z,47.55
2023-02-19T21:49:14.688Z,45.03
2023-02-19T21:51:44.403Z,49.35
2023-02-19T21:54:17.230Z,34.90
2023-02-19T21:56:44.268Z,45.40
2023-02-19T21:59:11.037Z,37.83
2023-02-19T22:01:38.717Z,41.03
2023-02-19T22:04:10.861Z,32.88
2023-02-19T22:06:39.404Z,34.97
2023-02-19T22:09:07.227Z,35.25
2023-02-19T22:11:33.992Z,36.88
2023-02-19T22:14:00.681Z,35.45
2023-02-19T22:16:28.621Z,41.47
2023-02-19T22:18:57.567Z,41.15
2023-02-19T22:21:27.181Z,39.67
2023-02-19T22:23:55.071Z,42.63
2023-02-19T22:26:28.164Z,41.05
2023-02-19T22:28:55.344Z,39.35
2023-02-19T22:31:23.944Z,35.22
2023-02-19T22:33:50.803Z,37.92
2023-02-19T22:36:19.052Z,38.17
2023-02-19T22:38:46.089Z,40.13
2023-02-19T22:41:13.334Z,35.47
2023-02-19T22:43:40.028Z,33.92
2023-02-19T22:46:16.624Z,36.83
2023-02-19T22:48:43.445Z,37.30
2023-02-19T22:51:13.608Z,34.58
2023-02-19T22:53:48.618Z,32.70
2023-02-19T22:56:17.157Z,34.72
2023-02-19T22:58:44.365Z,32.33
2023-02-19T23:01:12.599Z,37.22
2023-02-19T23:03:49.817Z,32.95
2023-02-19T23:06:17.957Z,37.25
2023-02-19T23:08:44.686Z,36.85
2023-02-19T23:11:13.336Z,36.05
2023-02-19T23:13:43.041Z,38.58
2023-02-19T23:16:09.912Z,49.58
2023-02-19T23:18:36.681Z,52.25
2023-02-19T23:21:03.395Z,48.88
2023-02-19T23:23:30.056Z,52.47
2023-02-19T23:25:56.741Z,53.10
2023-02-19T23:28:23.458Z,51.63
2023-02-19T23:30:50.120Z,49.88
2023-02-19T23:33:17.192Z,50.67
2023-02-19T23:35:43.980Z,48.33
2023-02-19T23:38:10.806Z,45.17
2023-02-19T23:40:37.416Z,43.45
2023-02-19T23:43:04.080Z,43.15
2023-02-19T23:45:30.678Z,42.72
2023-02-19T23:47:57.333Z,41.20
2023-02-19T23:50:23.979Z,39.70
2023-02-19T23:52:50.713Z,47.40
2023-02-19T23:55:17.560Z,46.15
2023-02-19T23:57:44.181Z,45.00
